createdAt,value
2017-12-01T00:02:15.519Z,99.90
2017-12-01T00:04:44.066Z,99.90
2017-12-01T00:07:11.893Z,99.90
2017-12-01T00:09:39.634Z,99.90
2017-12-01T00:12:07.433Z,99.90
2017-12-01T00:14:35.230Z,99.90
2017-12-01T00:17:03.004Z,99.90
2017-12-01T00:19:31.510Z,99.90
2017-12-01T00:21:59.305Z,99.90
2017-12-01T00:24:27.050Z,99.90
2017-12-01T00:26:54.797Z,99.90
2017-12-01T00:29:22.601Z,99.90
2017-12-01T00:31:50.350Z,99.90
2017-12-01T00:34:18.146Z,99.90
2017-12-01T00:36:45.959Z,99.90
2017-12-01T00:39:13.719Z,99.90
2017-12-01T00:41:41.472Z,99.90
2017-12-01T00:44:09.275Z,99.90
2017-12-01T00:46:37.043Z,99.90
2017-12-01T00:49:04.792Z,99.90
2017-12-01T00:51:32.626Z,99.90
2017-12-01T00:54:00.374Z,99.90
2017-12-01T00:56:28.122Z,99.90
2017-12-01T00:58:56.726Z,99.90
2017-12-01T01:01:24.501Z,99.90
2017-12-01T01:03:52.271Z,99.90
2017-12-01T01:06:20.077Z,99.90
2017-12-01T01:08:48.599Z,99.90
2017-12-01T01:11:16.374Z,99.90
2017-12-01T01:13:44.209Z,99.90
2017-12-01T01:16:11.958Z,99.90
2017-12-01T01:18:40.516Z,99.90
2017-12-01T01:21:08.335Z,99.90
2017-12-01T01:23:36.099Z,99.90
2017-12-01T01:26:03.838Z,99.90
2017-12-01T01:28:31.653Z,99.90
2017-12-01T01:30:59.426Z,99.90
2017-12-01T01:33:27.181Z,99.90
2017-12-01T01:35:54.982Z,99.90
2017-12-01T01:38:22.735Z,99.90
2017-12-01T01:40:51.303Z,99.90
2017-12-01T01:43:19.881Z,99.90
2017-12-01T01:45:48.394Z,99.90
2017-12-01T01:48:16.155Z,99.90
2017-12-01T01:50:43.980Z,99.90
2017-12-01T01:53:11.739Z,99.90
2017-12-01T01:55:39.499Z,99.90
2017-12-01T01:58:07.327Z,99.90
2017-12-01T02:00:35.083Z,99.90
2017-12-01T02:03:02.842Z,99.90
2017-12-01T02:05:30.686Z,99.90
2017-12-01T02:07:58.502Z,99.90
2017-12-01T02:10:26.323Z,99.90
2017-12-01T02:12:54.259Z,99.90
2017-12-01T02:15:22.783Z,99.90
2017-12-01T02:17:50.543Z,99.90
2017-12-01T02:20:18.361Z,99.90
2017-12-01T02:22:46.881Z,99.90
2017-12-01T02:25:14.701Z,99.90
2017-12-01T02:27:43.290Z,99.90
2017-12-01T02:30:11.814Z,99.90
2017-12-01T02:32:39.601Z,99.90
2017-12-01T02:35:07.459Z,99.90
2017-12-01T02:37:35.249Z,99.90
2017-12-01T02:40:03.782Z,99.90
2017-12-01T02:42:31.611Z,99.90
2017-12-01T02:44:59.439Z,99.90
2017-12-01T02:47:27.206Z,99.90
2017-12-01T02:49:55.787Z,99.90
2017-12-01T02:52:23.547Z,99.90
2017-12-01T02:54:51.986Z,99.90
2017-12-01T02:57:19.809Z,99.90
2017-12-01T02:59:48.335Z,99.90
2017-12-01T03:02:16.086Z,99.90
2017-12-01T03:04:43.975Z,99.90
2017-12-01T03:07:11.730Z,99.90
2017-12-01T03:09:39.493Z,99.90
2017-12-01T03:12:07.314Z,99.90
2017-12-01T03:14:35.066Z,99.90
2017-12-01T03:17:02.828Z,99.90
2017-12-01T03:19:30.645Z,99.90
2017-12-01T03:21:58.402Z,99.90
2017-12-01T03:24:26.163Z,99.90
2017-12-01T03:26:53.981Z,99.90
2017-12-01T03:29:21.737Z,99.90
2017-12-01T03:31:49.493Z,99.90
2017-12-01T03:34:17.314Z,99.90
2017-12-01T03:36:45.075Z,99.90
2017-12-01T03:39:12.843Z,99.90
2017-12-01T03:41:40.729Z,99.90
2017-12-01T03:44:09.256Z,99.90
2017-12-01T03:46:37.014Z,99.90
2017-12-01T03:49:04.839Z,99.90
2017-12-01T03:51:33.363Z,99.90
2017-12-01T03:54:01.129Z,99.90
2017-12-01T03:56:29.029Z,99.90
2017-12-01T03:58:57.566Z,99.90
2017-12-01T04:01:25.322Z,99.90
2017-12-01T04:03:53.134Z,99.90
2017-12-01T04:06:20.900Z,99.90
2017-12-01T04:08:48.654Z,99.90
2017-12-01T04:11:16.474Z,99.90
2017-12-01T04:13:44.242Z,99.90
2017-12-01T04:16:12.006Z,99.90
2017-12-01T04:18:39.826Z,99.90
2017-12-01T04:21:08.350Z,99.90
2017-12-01T04:23:36.114Z,99.90
2017-12-01T04:26:03.946Z,99.90
2017-12-01T04:28:31.697Z,99.90
2017-12-01T04:31:00.230Z,99.90
2017-12-01T04:33:28.049Z,99.90
2017-12-01T04:35:55.811Z,99.90
2017-12-01T04:38:23.567Z,99.90
2017-12-01T04:40:51.400Z,99.90
2017-12-01T04:43:19.155Z,99.90
2017-12-01T04:45:46.909Z,99.90
2017-12-01T04:48:14.730Z,99.90
2017-12-01T04:50:42.498Z,99.90
2017-12-01T04:53:10.250Z,99.90
2017-12-01T04:55:38.082Z,99.90
2017-12-01T04:58:06.602Z,99.90
2017-12-01T05:00:34.492Z,99.90
2017-12-01T05:03:02.314Z,99.90
2017-12-01T05:05:30.088Z,99.90
2017-12-01T05:07:57.857Z,99.90
2017-12-01T05:10:25.681Z,99.90
2017-12-01T05:12:54.200Z,99.90
2017-12-01T05:15:21.976Z,99.90
2017-12-01T05:17:50.594Z,99.90
2017-12-01T05:20:18.351Z,99.90
2017-12-01T05:22:46.111Z,99.90
2017-12-01T05:25:13.937Z,99.90
2017-12-01T05:27:41.721Z,99.90
2017-12-01T05:30:09.480Z,99.90
2017-12-01T05:32:37.350Z,99.90
2017-12-01T05:35:05.108Z,99.90
2017-12-01T05:37:32.870Z,99.90
2017-12-01T05:40:00.687Z,99.90
2017-12-01T05:42:28.459Z,99.90
2017-12-01T05:44:56.222Z,99.90
2017-12-01T05:47:24.038Z,99.90
2017-12-01T05:49:51.794Z,99.90
2017-12-01T05:52:19.554Z,99.90
2017-12-01T05:54:47.413Z,99.90
2017-12-01T05:57:15.178Z,99.90
2017-12-01T05:59:42.939Z,99.90
2017-12-01T06:02:10.895Z,99.90
2017-12-01T06:04:38.655Z,99.90
2017-12-01T06:07:06.414Z,99.90
2017-12-01T06:09:34.224Z,99.90
2017-12-01T06:12:02.058Z,99.90
2017-12-01T06:14:30.602Z,99.90
2017-12-01T06:16:58.414Z,99.90
2017-12-01T06:19:26.954Z,99.90
2017-12-01T06:21:54.742Z,99.90
2017-12-01T06:24:22.557Z,99.90
2017-12-01T06:26:50.321Z,99.90
2017-12-01T06:29:18.071Z,99.90
2017-12-01T06:31:45.882Z,99.90
2017-12-01T06:34:13.634Z,99.90
2017-12-01T06:36:41.391Z,99.90
2017-12-01T06:39:09.209Z,99.90
2017-12-01T06:41:36.984Z,99.90
2017-12-01T06:44:04.747Z,99.90
2017-12-01T06:46:32.563Z,99.90
2017-12-01T06:49:00.321Z,99.90
2017-12-01T06:51:28.087Z,99.90
2017-12-01T06:53:55.906Z,99.90
2017-12-01T06:56:23.649Z,99.90
2017-12-01T06:58:51.402Z,99.90
2017-12-01T07:01:19.979Z,99.90
2017-12-01T07:03:48.499Z,99.90
2017-12-01T07:06:16.257Z,99.90
2017-12-01T07:08:44.102Z,99.90
2017-12-01T07:11:11.852Z,99.90
2017-12-01T07:13:39.622Z,99.90
2017-12-01T07:16:07.439Z,99.90
2017-12-01T07:18:35.187Z,99.90
2017-12-01T07:21:03.698Z,99.90
2017-12-01T07:23:32.265Z,99.90
2017-12-01T07:26:05.838Z,99.90
2017-12-01T07:28:33.646Z,99.90
2017-12-01T07:31:02.153Z,99.90
2017-12-01T07:33:29.902Z,99.90
2017-12-01T07:35:57.705Z,99.90
2017-12-01T07:38:25.472Z,99.90
2017-12-01T07:40:53.996Z,99.90
2017-12-01T07:43:22.582Z,99.90
2017-12-01T07:45:51.138Z,99.90
2017-12-01T07:48:18.898Z,99.90
2017-12-01T07:50:46.770Z,99.90
2017-12-01T07:53:15.297Z,99.90
2017-12-01T07:55:43.069Z,99.90
2017-12-01T07:58:10.881Z,99.90
2017-12-01T08:00:39.403Z,99.90
2017-12-01T08:03:07.161Z,99.90
2017-12-01T08:05:34.989Z,99.90
2017-12-01T08:08:03.510Z,99.90
2017-12-01T08:10:31.266Z,99.90
2017-12-01T08:12:59.088Z,99.90
2017-12-01T08:15:27.614Z,99.90
2017-12-01T08:31:22.151Z,99.90
2017-12-01T08:33:49.894Z,99.90
2017-12-01T08:36:18.406Z,99.90
2017-12-01T08:38:46.202Z,99.90
2017-12-01T08:41:13.950Z,99.90
2017-12-01T08:43:41.697Z,99.90
2017-12-01T08:46:09.498Z,99.90
2017-12-01T08:48:37.269Z,99.90
2017-12-01T08:51:05.022Z,99.90
2017-12-01T08:53:32.833Z,99.90
2017-12-01T08:56:00.594Z,99.90
2017-12-01T08:58:28.334Z,99.90
2017-12-01T09:00:56.898Z,99.90
2017-12-01T09:03:24.660Z,99.90
2017-12-01T09:05:53.171Z,99.90
2017-12-01T09:08:20.970Z,99.90
2017-12-01T09:10:48.718Z,99.90
2017-12-01T09:13:16.478Z,99.90
2017-12-01T09:15:44.290Z,99.90
2017-12-01T09:18:12.806Z,99.90
2017-12-01T09:20:40.569Z,99.90
2017-12-01T09:23:08.367Z,99.90
2017-12-01T09:25:36.111Z,99.90
2017-12-01T09:28:03.867Z,99.90
2017-12-01T09:30:31.668Z,99.90
2017-12-01T09:32:59.410Z,99.90
2017-12-01T09:35:27.939Z,99.90
2017-12-01T09:37:55.734Z,99.90
2017-12-01T09:40:23.494Z,99.90
2017-12-01T09:42:51.258Z,99.90
2017-12-01T09:45:19.086Z,99.90
2017-12-01T09:47:46.830Z,99.90
2017-12-01T09:50:15.349Z,99.90
2017-12-01T09:52:43.179Z,99.90
2017-12-01T09:55:11.691Z,99.90
2017-12-01T09:57:39.463Z,99.90
2017-12-01T10:00:07.299Z,99.90
2017-12-01T10:02:35.064Z,99.90
2017-12-01T10:05:02.811Z,99.90
2017-12-01T10:07:31.378Z,99.90
2017-12-01T10:09:59.125Z,99.90
2017-12-01T10:12:26.871Z,99.90
2017-12-01T10:14:54.670Z,99.90
2017-12-01T10:17:22.454Z,99.90
2017-12-01T10:19:50.202Z,99.90
2017-12-01T10:22:18.765Z,99.90
2017-12-01T10:24:46.514Z,99.90
2017-12-01T10:27:14.295Z,99.70
2017-12-01T10:29:42.864Z,99.90
2017-12-01T10:32:10.715Z,99.90
2017-12-01T10:34:38.461Z,99.00
2017-12-01T10:37:06.270Z,96.80
2017-12-01T10:39:34.778Z,98.60
2017-12-01T10:42:02.522Z,98.60
2017-12-01T10:44:30.323Z,99.80
2017-12-01T10:46:58.082Z,98.70
2017-12-01T10:49:25.826Z,96.80
2017-12-01T10:51:53.635Z,98.00
2017-12-01T10:54:21.387Z,99.20
2017-12-01T10:56:49.130Z,98.10
2017-12-01T10:59:17.697Z,99.90
2017-12-01T11:01:45.450Z,99.90
2017-12-01T11:04:13.187Z,98.80
2017-12-01T11:06:41.750Z,98.80
2017-12-01T11:09:09.495Z,98.80
2017-12-01T11:11:37.258Z,98.80
2017-12-01T11:14:05.055Z,99.90
2017-12-01T11:16:32.806Z,98.40
2017-12-01T11:19:01.322Z,97.40
2017-12-01T11:21:29.132Z,97.30
2017-12-01T11:23:56.890Z,97.80
2017-12-01T11:26:24.633Z,97.30
2017-12-01T11:28:52.430Z,97.50
2017-12-01T11:31:20.938Z,99.90
2017-12-01T11:33:48.678Z,99.90
2017-12-01T11:36:17.241Z,97.00
2017-12-01T11:38:44.985Z,97.00
2017-12-01T11:41:12.726Z,97.00
2017-12-01T11:43:40.532Z,96.30
2017-12-01T11:46:09.039Z,97.90
2017-12-01T11:48:36.780Z,97.90
2017-12-01T11:51:05.348Z,96.60
2017-12-01T11:53:33.087Z,96.50
2017-12-01T11:56:01.659Z,95.80
2017-12-01T11:58:29.492Z,95.80
2017-12-01T12:00:57.297Z,97.60
2017-12-01T12:03:25.092Z,96.50
2017-12-01T12:05:53.677Z,96.80
2017-12-01T12:08:22.232Z,98.00
2017-12-01T12:10:50.039Z,98.00
2017-12-01T12:13:17.917Z,97.00
2017-12-01T12:15:45.763Z,99.20
2017-12-01T12:18:13.616Z,99.00
2017-12-01T12:20:41.473Z,99.90
2017-12-01T12:23:10.027Z,99.90
2017-12-01T12:25:37.881Z,99.90
2017-12-01T12:28:05.760Z,99.90
2017-12-01T12:30:33.591Z,99.50
2017-12-01T12:33:01.407Z,99.40
2017-12-01T12:35:30.035Z,99.90
2017-12-01T12:37:57.840Z,99.90
2017-12-01T12:40:26.425Z,99.90
2017-12-01T12:42:55.047Z,99.90
2017-12-01T12:45:22.836Z,99.90
2017-12-01T12:47:50.637Z,99.90
2017-12-01T12:50:19.269Z,99.90
2017-12-01T12:52:47.092Z,99.90
2017-12-01T12:55:14.904Z,99.90
2017-12-01T12:57:42.788Z,99.90
2017-12-01T13:00:10.622Z,99.90
2017-12-01T13:02:38.479Z,99.90
2017-12-01T13:05:06.354Z,99.90
2017-12-01T13:07:34.132Z,99.90
2017-12-01T13:10:01.916Z,99.90
2017-12-01T13:12:30.552Z,99.90
2017-12-01T13:14:58.368Z,99.90
2017-12-01T13:17:26.924Z,99.90
2017-12-01T13:19:54.807Z,99.90
2017-12-01T13:22:23.356Z,99.90
2017-12-01T13:24:51.932Z,99.90
2017-12-01T13:27:19.805Z,99.90
2017-12-01T13:29:47.632Z,99.90
2017-12-01T13:32:15.437Z,99.90
2017-12-01T13:34:43.303Z,99.90
2017-12-01T13:37:11.115Z,99.90
2017-12-01T13:39:38.934Z,99.90
2017-12-01T13:42:06.796Z,99.90
2017-12-01T13:44:34.612Z,99.90
2017-12-01T13:47:02.431Z,99.90
2017-12-01T13:49:30.292Z,99.90
2017-12-01T13:51:58.107Z,99.90
2017-12-01T13:54:25.905Z,99.90
2017-12-01T13:56:53.780Z,99.90
2017-12-01T13:59:21.542Z,99.90
2017-12-01T14:01:49.347Z,99.90
2017-12-01T14:04:17.180Z,99.90
2017-12-01T14:06:45.727Z,99.90
2017-12-01T14:09:13.471Z,99.90
2017-12-01T14:11:41.264Z,99.90
2017-12-01T14:14:08.995Z,99.90
2017-12-01T14:16:36.727Z,99.90
2017-12-01T14:19:04.535Z,99.90
2017-12-01T14:21:32.270Z,99.90
2017-12-01T14:24:00.009Z,99.90
2017-12-01T14:26:27.809Z,99.90
2017-12-01T14:28:55.545Z,99.90
2017-12-01T14:31:23.281Z,99.90
2017-12-01T14:33:51.844Z,99.90
2017-12-01T14:36:19.591Z,99.90
2017-12-01T14:38:47.348Z,99.90
2017-12-01T14:41:15.915Z,99.90
2017-12-01T14:43:43.651Z,99.90
2017-12-01T14:46:11.388Z,99.90
2017-12-01T14:48:39.947Z,99.90
2017-12-01T14:51:07.696Z,99.90
2017-12-01T14:53:35.441Z,99.90
2017-12-01T14:56:03.243Z,99.90
2017-12-01T14:58:31.753Z,99.90
2017-12-01T15:00:59.503Z,99.90
2017-12-01T15:03:27.312Z,99.90
2017-12-01T15:05:55.829Z,99.90
2017-12-01T15:08:24.340Z,99.90
2017-12-01T15:10:52.137Z,99.90
2017-12-01T15:13:19.875Z,99.90
2017-12-01T15:15:47.609Z,99.90
2017-12-01T15:18:15.451Z,99.90
2017-12-01T15:20:43.956Z,99.90
2017-12-01T15:23:11.694Z,99.90
2017-12-01T15:25:40.267Z,99.90
2017-12-01T15:28:08.009Z,99.90
2017-12-01T15:30:35.772Z,99.90
2017-12-01T15:33:03.581Z,99.90
2017-12-01T15:35:31.326Z,99.90
2017-12-01T15:37:59.125Z,99.90
2017-12-01T15:40:27.014Z,99.90
2017-12-01T15:42:54.795Z,99.90
2017-12-01T15:45:22.580Z,99.90
2017-12-01T15:47:51.203Z,99.90
2017-12-01T15:50:18.992Z,99.90
2017-12-01T15:52:46.780Z,99.90
2017-12-01T15:55:15.395Z,99.90
2017-12-01T15:57:43.188Z,99.90
2017-12-01T16:00:11.009Z,99.90
2017-12-01T16:02:38.924Z,99.90
2017-12-01T16:05:06.778Z,99.90
2017-12-01T16:07:34.580Z,99.90
2017-12-01T16:10:03.276Z,99.90
2017-12-01T16:12:31.901Z,99.90
2017-12-01T16:14:59.828Z,99.90
2017-12-01T16:17:27.736Z,99.90
2017-12-01T16:19:55.556Z,99.90
2017-12-01T16:22:23.371Z,99.90
2017-12-01T16:24:51.232Z,99.90
2017-12-01T16:27:19.839Z,99.90
2017-12-01T16:29:47.643Z,99.90
2017-12-01T16:32:15.512Z,99.90
2017-12-01T16:34:43.406Z,99.90
2017-12-01T16:37:12.025Z,99.90
2017-12-01T16:39:41.486Z,99.90
2017-12-01T16:42:10.679Z,99.90
2017-12-01T16:44:39.977Z,99.90
2017-12-01T16:47:08.354Z,99.90
2017-12-01T16:49:37.554Z,99.90
2017-12-01T16:52:05.808Z,99.90
2017-12-01T16:54:35.223Z,99.90
2017-12-01T16:57:04.543Z,99.90
2017-12-01T16:59:34.537Z,99.90
2017-12-01T17:02:04.451Z,99.90
2017-12-01T17:04:35.370Z,99.90
2017-12-01T17:07:06.949Z,99.90
2017-12-01T17:09:37.931Z,99.90
2017-12-01T17:12:09.376Z,99.90
2017-12-01T17:14:40.782Z,99.90
2017-12-01T17:17:12.157Z,99.90
2017-12-01T17:19:42.457Z,99.90
2017-12-01T17:22:13.502Z,99.90
2017-12-01T17:24:45.038Z,99.90
2017-12-01T17:27:13.924Z,99.90
2017-12-01T17:29:44.931Z,99.90
2017-12-01T17:32:16.250Z,99.90
2017-12-01T17:37:22.376Z,99.90
2017-12-01T17:39:54.059Z,99.90
2017-12-01T17:42:25.410Z,99.90
2017-12-01T17:44:56.952Z,99.90
2017-12-01T17:47:29.382Z,99.90
2017-12-01T17:50:00.958Z,99.90
2017-12-01T17:52:32.634Z,99.90
2017-12-01T17:55:12.838Z,99.90
2017-12-01T17:57:49.215Z,99.90
2017-12-01T18:00:20.468Z,99.90
2017-12-01T18:02:49.332Z,99.90
2017-12-01T18:05:20.305Z,99.90
2017-12-01T18:07:51.838Z,99.90
2017-12-01T18:10:23.404Z,99.90
2017-12-01T18:12:52.385Z,99.90
2017-12-01T18:15:24.442Z,99.90
2017-12-01T18:17:53.302Z,99.90
2017-12-01T18:20:24.714Z,99.90
2017-12-01T18:22:54.366Z,99.90
2017-12-01T18:25:25.557Z,99.90
2017-12-01T18:27:57.311Z,99.90
2017-12-01T18:30:28.856Z,99.90
2017-12-01T18:32:58.367Z,99.90
2017-12-01T18:35:30.820Z,99.90
2017-12-01T18:38:02.685Z,99.90
2017-12-01T18:40:34.437Z,99.90
2017-12-01T18:43:06.708Z,99.90
2017-12-01T18:45:38.277Z,99.90
2017-12-01T18:48:10.081Z,99.90
2017-12-01T18:50:41.734Z,99.90
2017-12-01T18:53:13.484Z,99.90
2017-12-01T18:55:45.110Z,99.90
2017-12-01T18:58:16.855Z,99.90
2017-12-01T19:00:48.614Z,99.90
2017-12-01T19:03:18.356Z,99.90
2017-12-01T19:05:49.796Z,99.90
2017-12-01T19:08:22.571Z,99.90
2017-12-01T19:10:51.390Z,99.90
2017-12-01T19:13:22.679Z,99.90
2017-12-01T19:15:55.197Z,99.90
2017-12-01T19:18:27.048Z,99.90
2017-12-01T19:20:57.365Z,99.90
2017-12-01T19:23:31.474Z,99.90
2017-12-01T19:26:03.321Z,99.90
2017-12-01T19:28:35.072Z,99.90
2017-12-01T19:31:03.997Z,99.90
2017-12-01T19:33:32.488Z,99.90
2017-12-01T19:36:03.927Z,99.90
2017-12-01T19:38:35.959Z,99.90
2017-12-01T19:41:05.598Z,99.90
2017-12-01T19:43:37.194Z,99.90
2017-12-01T19:46:09.158Z,99.90
2017-12-01T19:48:41.061Z,99.90
2017-12-01T19:51:12.924Z,99.90
2017-12-01T19:53:44.697Z,99.90
2017-12-01T19:56:17.161Z,99.90
2017-12-01T19:58:51.132Z,99.90
2017-12-01T20:01:23.124Z,99.90
2017-12-01T20:03:55.026Z,99.90
2017-12-01T20:06:26.912Z,99.90
2017-12-01T20:09:01.498Z,99.90
2017-12-01T20:11:34.210Z,99.90
2017-12-01T20:14:06.294Z,99.90
2017-12-01T20:16:38.956Z,99.90
2017-12-01T20:19:11.048Z,99.90
2017-12-01T20:21:42.827Z,99.90
2017-12-01T20:24:14.734Z,99.90
2017-12-01T20:26:44.359Z,99.90
2017-12-01T20:29:12.286Z,99.90
2017-12-01T20:31:40.074Z,99.90
2017-12-01T20:34:07.856Z,99.90
2017-12-01T20:36:36.462Z,99.90
2017-12-01T20:39:04.259Z,99.90
2017-12-01T20:41:32.032Z,99.90
2017-12-01T20:43:59.863Z,99.90
2017-12-01T20:46:27.635Z,99.90
2017-12-01T20:48:55.413Z,99.90
2017-12-01T20:51:23.242Z,99.90
2017-12-01T20:53:51.011Z,99.90
2017-12-01T20:56:18.801Z,99.90
2017-12-01T20:58:46.631Z,99.90
2017-12-01T21:01:14.407Z,99.90
2017-12-01T21:03:42.183Z,99.90
2017-12-01T21:06:10.011Z,99.90
2017-12-01T21:08:37.817Z,99.90
2017-12-01T21:11:05.599Z,99.90
2017-12-01T21:13:33.473Z,99.90
2017-12-01T21:16:02.019Z,99.90
2017-12-01T21:18:29.819Z,99.90
2017-12-01T21:20:58.516Z,99.90
2017-12-01T21:23:26.298Z,99.90
2017-12-01T21:25:54.070Z,99.90
2017-12-01T21:28:21.898Z,99.90
2017-12-01T21:30:50.439Z,99.90
2017-12-01T21:33:18.232Z,99.90
2017-12-01T21:35:46.826Z,99.90
2017-12-01T21:38:14.619Z,99.90
2017-12-01T21:40:42.994Z,99.90
2017-12-01T21:43:10.831Z,99.90
2017-12-01T21:45:38.630Z,99.90
2017-12-01T21:48:06.415Z,99.90
2017-12-01T21:50:34.244Z,99.90
2017-12-01T21:53:02.003Z,99.90
2017-12-01T21:55:29.789Z,99.90
2017-12-01T21:57:57.595Z,99.90
2017-12-01T22:00:26.108Z,99.90
2017-12-01T22:02:53.851Z,99.90
2017-12-01T22:05:21.663Z,99.90
2017-12-01T22:07:49.419Z,99.90
2017-12-01T22:10:17.167Z,99.90
2017-12-01T22:12:44.976Z,99.90
2017-12-01T22:15:13.515Z,99.90
2017-12-01T22:17:41.264Z,99.90
2017-12-01T22:20:09.062Z,99.90
2017-12-01T22:22:36.812Z,99.90
2017-12-01T22:25:04.564Z,99.90
2017-12-01T22:27:32.413Z,99.90
2017-12-01T22:30:00.160Z,99.90
2017-12-01T22:32:27.942Z,99.90
2017-12-01T22:34:55.793Z,99.90
2017-12-01T22:37:24.383Z,99.90
2017-12-01T22:39:52.152Z,99.90
2017-12-01T22:42:19.967Z,99.90
2017-12-01T22:44:48.480Z,99.90
2017-12-01T22:47:16.263Z,99.90
2017-12-01T22:49:44.119Z,99.90
2017-12-01T22:52:11.889Z,99.90
2017-12-01T22:54:39.708Z,99.90
2017-12-01T22:57:07.519Z,99.90
2017-12-01T22:59:35.262Z,99.90
2017-12-01T23:02:03.014Z,99.90
2017-12-01T23:04:30.819Z,99.90
2017-12-01T23:06:58.562Z,99.90
2017-12-01T23:09:26.935Z,99.90
2017-12-01T23:11:54.758Z,99.90
2017-12-01T23:14:22.506Z,99.90
2017-12-01T23:16:51.042Z,99.90
2017-12-01T23:19:19.637Z,99.90
2017-12-01T23:21:47.386Z,99.90
2017-12-01T23:24:16.747Z,99.90
2017-12-01T23:26:44.612Z,99.90
2017-12-01T23:29:12.412Z,99.90
2017-12-01T23:31:40.276Z,99.90
2017-12-01T23:34:09.036Z,99.90
2017-12-01T23:36:37.579Z,99.90
2017-12-01T23:39:06.102Z,99.90
2017-12-01T23:41:34.046Z,99.90
2017-12-01T23:44:01.839Z,99.90
2017-12-01T23:46:29.717Z,99.90
2017-12-01T23:48:57.713Z,99.90
2017-12-01T23:51:26.310Z,99.90
2017-12-01T23:53:54.991Z,99.90
2017-12-01T23:56:23.574Z,99.90
2017-12-01T23:58:51.337Z,99.90
